sensor_id;sensor_type;location;lat;lon;timestamp;temperature;humidity
35085;SHT85;21267;51.032;6.998;2024-03-08T00:02:15;3.70;75.00
35085;SHT85;21267;51.032;6.998;2024-03-08T00:04:42;3.63;75.09
35085;SHT85;21267;51.032;6.998;2024-03-08T00:07:09;3.60;75.33
35085;SHT85;21267;51.032;6.998;2024-03-08T00:09:36;3.51;75.53
35085;SHT85;21267;51.032;6.998;2024-03-08T00:12:03;3.48;75.48
35085;SHT85;21267;51.032;6.998;2024-03-08T00:14:30;3.48;75.30
35085;SHT85;21267;51.032;6.998;2024-03-08T00:16:57;3.50;75.44
35085;SHT85;21267;51.032;6.998;2024-03-08T00:19:23;3.56;75.64
35085;SHT85;21267;51.032;6.998;2024-03-08T00:21:50;3.33;76.18
35085;SHT85;21267;51.032;6.998;2024-03-08T00:24:17;3.31;76.17
35085;SHT85;21267;51.032;6.998;2024-03-08T00:26:44;3.37;76.06
35085;SHT85;21267;51.032;6.998;2024-03-08T00:29:11;3.30;75.92
35085;SHT85;21267;51.032;6.998;2024-03-08T00:31:39;3.17;76.42
35085;SHT85;21267;51.032;6.998;2024-03-08T00:34:06;3.20;76.40
35085;SHT85;21267;51.032;6.998;2024-03-08T00:36:33;3.24;76.32
35085;SHT85;21267;51.032;6.998;2024-03-08T00:39:00;3.17;76.23
35085;SHT85;21267;51.032;6.998;2024-03-08T00:41:28;3.16;76.57
35085;SHT85;21267;51.032;6.998;2024-03-08T00:43:55;3.19;76.45
35085;SHT85;21267;51.032;6.998;2024-03-08T00:46:22;3.09;76.68
35085;SHT85;21267;51.032;6.998;2024-03-08T00:48:49;3.15;76.46
35085;SHT85;21267;51.032;6.998;2024-03-08T00:51:16;3.20;76.19
35085;SHT85;21267;51.032;6.998;2024-03-08T00:53:43;3.23;76.06
35085;SHT85;21267;51.032;6.998;2024-03-08T00:56:10;3.22;76.10
35085;SHT85;21267;51.032;6.998;2024-03-08T01:01:39;3.19;76.08
35085;SHT85;21267;51.032;6.998;2024-03-08T01:04:06;3.16;76.27
35085;SHT85;21267;51.032;6.998;2024-03-08T01:06:34;3.23;76.02
35085;SHT85;21267;51.032;6.998;2024-03-08T01:09:01;3.17;76.13
35085;SHT85;21267;51.032;6.998;2024-03-08T01:11:28;3.27;75.95
35085;SHT85;21267;51.032;6.998;2024-03-08T01:13:55;3.20;75.83
35085;SHT85;21267;51.032;6.998;2024-03-08T01:16:22;3.23;76.05
35085;SHT85;21267;51.032;6.998;2024-03-08T01:18:49;3.16;76.09
35085;SHT85;21267;51.032;6.998;2024-03-08T01:21:17;3.13;76.39
35085;SHT85;21267;51.032;6.998;2024-03-08T01:23:44;3.20;76.13
35085;SHT85;21267;51.032;6.998;2024-03-08T01:26:11;3.16;76.33
35085;SHT85;21267;51.032;6.998;2024-03-08T01:28:38;3.15;76.30
35085;SHT85;21267;51.032;6.998;2024-03-08T01:31:04;3.15;76.32
35085;SHT85;21267;51.032;6.998;2024-03-08T01:33:32;3.23;76.10
35085;SHT85;21267;51.032;6.998;2024-03-08T01:35:59;3.20;76.20
35085;SHT85;21267;51.032;6.998;2024-03-08T01:38:27;3.13;76.25
35085;SHT85;21267;51.032;6.998;2024-03-08T01:40:53;3.20;76.24
35085;SHT85;21267;51.032;6.998;2024-03-08T01:45:48;3.13;76.58
35085;SHT85;21267;51.032;6.998;2024-03-08T01:48:16;3.07;76.51
35085;SHT85;21267;51.032;6.998;2024-03-08T01:50:45;3.05;76.88
35085;SHT85;21267;51.032;6.998;2024-03-08T01:53:13;3.20;76.46
35085;SHT85;21267;51.032;6.998;2024-03-08T01:55:42;3.13;76.71
35085;SHT85;21267;51.032;6.998;2024-03-08T01:58:09;3.13;76.80
35085;SHT85;21267;51.032;6.998;2024-03-08T02:00:40;3.16;76.56
35085;SHT85;21267;51.032;6.998;2024-03-08T02:03:07;3.07;76.75
35085;SHT85;21267;51.032;6.998;2024-03-08T02:05:34;3.09;76.77
35085;SHT85;21267;51.032;6.998;2024-03-08T02:08:02;3.12;76.89
35085;SHT85;21267;51.032;6.998;2024-03-08T02:10:29;3.10;76.76
35085;SHT85;21267;51.032;6.998;2024-03-08T02:12:56;3.17;76.67
35085;SHT85;21267;51.032;6.998;2024-03-08T02:15:22;3.20;76.44
35085;SHT85;21267;51.032;6.998;2024-03-08T02:17:49;3.19;76.44
35085;SHT85;21267;51.032;6.998;2024-03-08T02:20:16;3.19;76.44
35085;SHT85;21267;51.032;6.998;2024-03-08T02:22:46;3.15;76.39
35085;SHT85;21267;51.032;6.998;2024-03-08T02:25:13;3.15;76.56
35085;SHT85;21267;51.032;6.998;2024-03-08T02:27:40;3.23;76.46
35085;SHT85;21267;51.032;6.998;2024-03-08T02:30:07;3.17;76.22
35085;SHT85;21267;51.032;6.998;2024-03-08T02:32:34;3.12;76.46
35085;SHT85;21267;51.032;6.998;2024-03-08T02:35:01;3.10;76.42
35085;SHT85;21267;51.032;6.998;2024-03-08T02:37:28;3.05;76.79
35085;SHT85;21267;51.032;6.998;2024-03-08T02:39:55;3.03;76.77
35085;SHT85;21267;51.032;6.998;2024-03-08T02:42:22;3.07;76.67
35085;SHT85;21267;51.032;6.998;2024-03-08T02:44:49;3.00;76.79
35085;SHT85;21267;51.032;6.998;2024-03-08T02:47:16;3.07;76.53
35085;SHT85;21267;51.032;6.998;2024-03-08T02:49:43;3.10;76.37
35085;SHT85;21267;51.032;6.998;2024-03-08T02:52:10;3.02;76.63
35085;SHT85;21267;51.032;6.998;2024-03-08T02:54:37;2.99;76.67
35085;SHT85;21267;51.032;6.998;2024-03-08T02:57:04;2.92;76.85
35085;SHT85;21267;51.032;6.998;2024-03-08T02:59:34;2.95;76.70
35085;SHT85;21267;51.032;6.998;2024-03-08T03:02:01;2.89;76.86
35085;SHT85;21267;51.032;6.998;2024-03-08T03:04:28;2.91;76.76
35085;SHT85;21267;51.032;6.998;2024-03-08T03:06:55;2.84;77.18
35085;SHT85;21267;51.032;6.998;2024-03-08T03:09:22;2.78;77.17
35085;SHT85;21267;51.032;6.998;2024-03-08T03:11:53;2.85;76.90
35085;SHT85;21267;51.032;6.998;2024-03-08T03:14:22;3.02;76.35
35085;SHT85;21267;51.032;6.998;2024-03-08T03:16:49;2.92;76.52
35085;SHT85;21267;51.032;6.998;2024-03-08T03:19:16;2.89;76.62
35085;SHT85;21267;51.032;6.998;2024-03-08T03:21:43;2.88;76.73
35085;SHT85;21267;51.032;6.998;2024-03-08T03:24:10;2.85;76.64
35085;SHT85;21267;51.032;6.998;2024-03-08T03:26:40;2.86;76.90
35085;SHT85;21267;51.032;6.998;2024-03-08T03:29:07;2.79;76.91
35085;SHT85;21267;51.032;6.998;2024-03-08T03:31:35;2.75;77.10
35085;SHT85;21267;51.032;6.998;2024-03-08T03:34:03;2.78;77.04
35085;SHT85;21267;51.032;6.998;2024-03-08T03:36:30;2.77;77.12
35085;SHT85;21267;51.032;6.998;2024-03-08T03:38:57;2.77;77.14
35085;SHT85;21267;51.032;6.998;2024-03-08T03:41:43;2.86;77.11
35085;SHT85;21267;51.032;6.998;2024-03-08T03:44:13;2.79;77.16
35085;SHT85;21267;51.032;6.998;2024-03-08T03:46:43;2.79;77.23
35085;SHT85;21267;51.032;6.998;2024-03-08T03:49:13;2.86;76.97
35085;SHT85;21267;51.032;6.998;2024-03-08T03:51:39;2.95;76.56
35085;SHT85;21267;51.032;6.998;2024-03-08T03:54:06;2.99;76.48
35085;SHT85;21267;51.032;6.998;2024-03-08T03:56:34;3.00;76.49
35085;SHT85;21267;51.032;6.998;2024-03-08T03:59:01;2.95;76.61
35085;SHT85;21267;51.032;6.998;2024-03-08T04:01:28;2.89;76.79
35085;SHT85;21267;51.032;6.998;2024-03-08T04:03:56;2.88;77.00
35085;SHT85;21267;51.032;6.998;2024-03-08T04:06:23;2.86;77.09
35085;SHT85;21267;51.032;6.998;2024-03-08T04:08:50;2.81;77.07
35085;SHT85;21267;51.032;6.998;2024-03-08T04:11:17;2.74;77.34
35085;SHT85;21267;51.032;6.998;2024-03-08T04:13:44;2.86;77.03
35085;SHT85;21267;51.032;6.998;2024-03-08T04:16:11;2.78;77.21
35085;SHT85;21267;51.032;6.998;2024-03-08T04:18:38;2.86;77.28
35085;SHT85;21267;51.032;6.998;2024-03-08T04:21:05;2.88;77.04
35085;SHT85;21267;51.032;6.998;2024-03-08T04:23:34;2.82;77.21
35085;SHT85;21267;51.032;6.998;2024-03-08T04:26:05;2.88;77.08
35085;SHT85;21267;51.032;6.998;2024-03-08T04:28:32;2.79;77.47
35085;SHT85;21267;51.032;6.998;2024-03-08T04:31:00;2.79;77.52
35085;SHT85;21267;51.032;6.998;2024-03-08T04:33:27;2.86;77.18
35085;SHT85;21267;51.032;6.998;2024-03-08T04:35:54;2.91;77.05
35085;SHT85;21267;51.032;6.998;2024-03-08T04:38:21;2.84;77.43
35085;SHT85;21267;51.032;6.998;2024-03-08T04:40:49;2.82;77.36
35085;SHT85;21267;51.032;6.998;2024-03-08T04:43:16;2.85;77.30
35085;SHT85;21267;51.032;6.998;2024-03-08T04:45:45;2.91;77.13
35085;SHT85;21267;51.032;6.998;2024-03-08T04:48:12;2.86;77.07
35085;SHT85;21267;51.032;6.998;2024-03-08T04:50:39;2.86;77.15
35085;SHT85;21267;51.032;6.998;2024-03-08T04:53:06;2.92;77.23
35085;SHT85;21267;51.032;6.998;2024-03-08T04:55:35;2.95;77.20
35085;SHT85;21267;51.032;6.998;2024-03-08T04:58:01;2.92;77.17
35085;SHT85;21267;51.032;6.998;2024-03-08T05:00:30;2.93;77.21
35085;SHT85;21267;51.032;6.998;2024-03-08T05:02:57;3.00;76.98
35085;SHT85;21267;51.032;6.998;2024-03-08T05:05:25;2.99;77.11
35085;SHT85;21267;51.032;6.998;2024-03-08T05:07:52;3.00;76.98
35085;SHT85;21267;51.032;6.998;2024-03-08T05:10:20;3.02;76.94
35085;SHT85;21267;51.032;6.998;2024-03-08T05:12:47;3.02;76.95
35085;SHT85;21267;51.032;6.998;2024-03-08T05:15:14;2.99;77.09
35085;SHT85;21267;51.032;6.998;2024-03-08T05:17:41;2.96;77.11
35085;SHT85;21267;51.032;6.998;2024-03-08T05:20:08;2.96;77.33
35085;SHT85;21267;51.032;6.998;2024-03-08T05:22:39;2.96;77.33
35085;SHT85;21267;51.032;6.998;2024-03-08T05:25:07;3.00;77.04
35085;SHT85;21267;51.032;6.998;2024-03-08T05:27:35;3.05;76.98
35085;SHT85;21267;51.032;6.998;2024-03-08T05:30:03;3.13;77.38
35085;SHT85;21267;51.032;6.998;2024-03-08T05:32:31;3.05;77.06
35085;SHT85;21267;51.032;6.998;2024-03-08T05:34:58;3.03;77.22
35085;SHT85;21267;51.032;6.998;2024-03-08T05:37:25;3.06;77.13
35085;SHT85;21267;51.032;6.998;2024-03-08T05:39:52;3.03;77.06
35085;SHT85;21267;51.032;6.998;2024-03-08T05:42:20;2.98;77.22
35085;SHT85;21267;51.032;6.998;2024-03-08T05:44:47;2.98;77.35
35085;SHT85;21267;51.032;6.998;2024-03-08T05:47:16;2.96;77.40
35085;SHT85;21267;51.032;6.998;2024-03-08T05:49:43;2.96;77.34
35085;SHT85;21267;51.032;6.998;2024-03-08T05:52:11;2.98;77.39
35085;SHT85;21267;51.032;6.998;2024-03-08T05:54:37;2.95;77.61
35085;SHT85;21267;51.032;6.998;2024-03-08T05:57:04;3.03;77.55
35085;SHT85;21267;51.032;6.998;2024-03-08T05:59:31;2.99;77.43
35085;SHT85;21267;51.032;6.998;2024-03-08T06:01:58;3.03;77.27
35085;SHT85;21267;51.032;6.998;2024-03-08T06:04:25;2.96;77.57
35085;SHT85;21267;51.032;6.998;2024-03-08T06:06:52;3.00;77.41
35085;SHT85;21267;51.032;6.998;2024-03-08T06:09:22;2.96;77.63
35085;SHT85;21267;51.032;6.998;2024-03-08T06:11:54;3.00;77.47
35085;SHT85;21267;51.032;6.998;2024-03-08T06:14:21;3.03;77.74
35085;SHT85;21267;51.032;6.998;2024-03-08T06:16:50;2.92;77.87
35085;SHT85;21267;51.032;6.998;2024-03-08T06:19:17;2.96;77.74
35085;SHT85;21267;51.032;6.998;2024-03-08T06:21:44;3.05;77.72
35085;SHT85;21267;51.032;6.998;2024-03-08T06:24:11;2.99;77.99
35085;SHT85;21267;51.032;6.998;2024-03-08T06:26:38;3.03;77.56
35085;SHT85;21267;51.032;6.998;2024-03-08T06:29:05;3.06;77.65
35085;SHT85;21267;51.032;6.998;2024-03-08T06:31:33;3.03;77.85
35085;SHT85;21267;51.032;6.998;2024-03-08T06:34:00;3.02;77.88
35085;SHT85;21267;51.032;6.998;2024-03-08T06:36:29;3.05;77.93
35085;SHT85;21267;51.032;6.998;2024-03-08T06:38:56;3.12;77.83
35085;SHT85;21267;51.032;6.998;2024-03-08T06:41:24;3.20;77.63
35085;SHT85;21267;51.032;6.998;2024-03-08T06:43:51;3.26;77.43
35085;SHT85;21267;51.032;6.998;2024-03-08T06:46:18;3.28;77.49
35085;SHT85;21267;51.032;6.998;2024-03-08T06:48:47;3.31;77.25
35085;SHT85;21267;51.032;6.998;2024-03-08T06:51:17;3.46;77.12
35085;SHT85;21267;51.032;6.998;2024-03-08T06:53:44;3.78;76.34
35085;SHT85;21267;51.032;6.998;2024-03-08T06:56:11;3.92;75.92
35085;SHT85;21267;51.032;6.998;2024-03-08T06:58:38;4.17;75.45
35085;SHT85;21267;51.032;6.998;2024-03-08T07:01:05;4.29;75.09
35085;SHT85;21267;51.032;6.998;2024-03-08T07:03:34;4.73;74.25
35085;SHT85;21267;51.032;6.998;2024-03-08T07:06:01;4.91;73.26
35085;SHT85;21267;51.032;6.998;2024-03-08T07:08:30;4.98;73.26
35085;SHT85;21267;51.032;6.998;2024-03-08T07:10:57;5.04;72.76
35085;SHT85;21267;51.032;6.998;2024-03-08T07:13:26;5.08;72.57
35085;SHT85;21267;51.032;6.998;2024-03-08T07:15:55;5.32;72.57
35085;SHT85;21267;51.032;6.998;2024-03-08T07:18:22;5.34;72.08
35085;SHT85;21267;51.032;6.998;2024-03-08T07:20:49;5.26;71.96
35085;SHT85;21267;51.032;6.998;2024-03-08T07:23:16;5.65;71.93
35085;SHT85;21267;51.032;6.998;2024-03-08T07:26:04;5.63;71.87
35085;SHT85;21267;51.032;6.998;2024-03-08T07:28:31;5.39;72.79
35085;SHT85;21267;51.032;6.998;2024-03-08T18:57:33;9.23;62.28
35085;SHT85;21267;51.032;6.998;2024-03-08T19:00:00;9.13;62.62
35085;SHT85;21267;51.032;6.998;2024-03-08T19:02:27;9.08;62.88
35085;SHT85;21267;51.032;6.998;2024-03-08T19:04:54;9.03;62.74
35085;SHT85;21267;51.032;6.998;2024-03-08T19:07:37;9.01;62.91
35085;SHT85;21267;51.032;6.998;2024-03-08T19:10:06;8.95;63.08
35085;SHT85;21267;51.032;6.998;2024-03-08T19:12:42;8.91;63.16
35085;SHT85;21267;51.032;6.998;2024-03-08T19:15:15;8.81;63.45
35085;SHT85;21267;51.032;6.998;2024-03-08T19:17:43;8.78;63.55
35085;SHT85;21267;51.032;6.998;2024-03-08T19:20:10;8.68;63.86
35085;SHT85;21267;51.032;6.998;2024-03-08T19:22:44;8.67;64.19
35085;SHT85;21267;51.032;6.998;2024-03-08T19:25:11;8.61;64.36
35085;SHT85;21267;51.032;6.998;2024-03-08T19:27:39;8.50;64.50
35085;SHT85;21267;51.032;6.998;2024-03-08T19:30:07;8.47;64.63
35085;SHT85;21267;51.032;6.998;2024-03-08T19:32:35;8.40;64.83
35085;SHT85;21267;51.032;6.998;2024-03-08T19:35:06;8.37;65.00
35085;SHT85;21267;51.032;6.998;2024-03-08T19:37:45;8.29;64.95
35085;SHT85;21267;51.032;6.998;2024-03-08T19:40:16;8.30;65.21
35085;SHT85;21267;51.032;6.998;2024-03-08T19:42:49;8.22;65.34
35085;SHT85;21267;51.032;6.998;2024-03-08T19:45:21;8.16;65.41
35085;SHT85;21267;51.032;6.998;2024-03-08T19:47:47;8.17;65.52
35085;SHT85;21267;51.032;6.998;2024-03-08T19:50:16;8.13;65.68
35085;SHT85;21267;51.032;6.998;2024-03-08T19:52:45;8.03;65.75
35085;SHT85;21267;51.032;6.998;2024-03-08T19:55:16;7.99;66.03
35085;SHT85;21267;51.032;6.998;2024-03-08T19:57:44;8.00;66.04
35085;SHT85;21267;51.032;6.998;2024-03-08T20:00:18;7.93;66.14
35085;SHT85;21267;51.032;6.998;2024-03-08T20:02:53;8.00;65.92
35085;SHT85;21267;51.032;6.998;2024-03-08T20:05:24;7.99;66.17
35085;SHT85;21267;51.032;6.998;2024-03-08T20:07:52;7.96;66.02
35085;SHT85;21267;51.032;6.998;2024-03-08T20:10:22;7.94;66.06
35085;SHT85;21267;51.032;6.998;2024-03-08T20:12:51;7.96;65.87
35085;SHT85;21267;51.032;6.998;2024-03-08T20:15:20;7.93;66.24
35085;SHT85;21267;51.032;6.998;2024-03-08T20:17:55;7.89;66.36
35085;SHT85;21267;51.032;6.998;2024-03-08T20:20:24;8.02;66.04
35085;SHT85;21267;51.032;6.998;2024-03-08T20:22:51;7.89;66.51
35085;SHT85;21267;51.032;6.998;2024-03-08T20:25:19;7.97;66.29
35085;SHT85;21267;51.032;6.998;2024-03-08T20:27:50;7.96;66.35
35085;SHT85;21267;51.032;6.998;2024-03-08T20:30:22;8.02;66.21
35085;SHT85;21267;51.032;6.998;2024-03-08T20:32:55;8.06;66.01
35085;SHT85;21267;51.032;6.998;2024-03-08T20:35:24;8.13;65.77
35085;SHT85;21267;51.032;6.998;2024-03-08T20:37:52;8.06;65.90
35085;SHT85;21267;51.032;6.998;2024-03-08T20:40:19;8.06;65.97
35085;SHT85;21267;51.032;6.998;2024-03-08T20:43:06;8.12;65.84
35085;SHT85;21267;51.032;6.998;2024-03-08T20:45:38;8.09;65.73
35085;SHT85;21267;51.032;6.998;2024-03-08T20:48:05;8.17;65.60
35085;SHT85;21267;51.032;6.998;2024-03-08T20:50:33;8.22;65.39
35085;SHT85;21267;51.032;6.998;2024-03-08T20:53:07;8.09;65.75
35085;SHT85;21267;51.032;6.998;2024-03-08T20:55:37;8.20;65.48
35085;SHT85;21267;51.032;6.998;2024-03-08T20:58:10;8.14;65.53
35085;SHT85;21267;51.032;6.998;2024-03-08T21:00:37;8.09;65.89
35085;SHT85;21267;51.032;6.998;2024-03-08T21:03:09;8.09;65.68
35085;SHT85;21267;51.032;6.998;2024-03-08T21:05:42;8.13;65.64
35085;SHT85;21267;51.032;6.998;2024-03-08T21:08:11;8.10;65.56
35085;SHT85;21267;51.032;6.998;2024-03-08T21:10:40;8.07;65.90
35085;SHT85;21267;51.032;6.998;2024-03-08T21:13:09;8.06;65.91
35085;SHT85;21267;51.032;6.998;2024-03-08T21:15:40;8.09;65.60
35085;SHT85;21267;51.032;6.998;2024-03-08T21:18:08;8.00;65.86
35085;SHT85;21267;51.032;6.998;2024-03-08T21:20:36;8.07;65.77
35085;SHT85;21267;51.032;6.998;2024-03-08T21:23:04;8.02;65.82
35085;SHT85;21267;51.032;6.998;2024-03-08T21:25:31;7.94;66.09
35085;SHT85;21267;51.032;6.998;2024-03-08T21:28:02;7.93;66.13
35085;SHT85;21267;51.032;6.998;2024-03-08T21:30:30;7.96;66.02
35085;SHT85;21267;51.032;6.998;2024-03-08T21:32:58;7.93;66.42
35085;SHT85;21267;51.032;6.998;2024-03-08T21:35:25;7.79;66.46
35085;SHT85;21267;51.032;6.998;2024-03-08T21:37:55;7.79;66.67
35085;SHT85;21267;51.032;6.998;2024-03-08T21:40:23;7.78;66.67
35085;SHT85;21267;51.032;6.998;2024-03-08T21:42:57;7.65;67.01
35085;SHT85;21267;51.032;6.998;2024-03-08T21:45:30;7.62;67.25
35085;SHT85;21267;51.032;6.998;2024-03-08T21:47:58;7.64;66.90
35085;SHT85;21267;51.032;6.998;2024-03-08T21:50:31;7.68;67.05
35085;SHT85;21267;51.032;6.998;2024-03-08T21:52:58;7.68;66.93
35085;SHT85;21267;51.032;6.998;2024-03-08T21:55:29;7.71;66.87
35085;SHT85;21267;51.032;6.998;2024-03-08T21:57:58;7.62;67.03
35085;SHT85;21267;51.032;6.998;2024-03-08T22:00:26;7.58;67.15
35085;SHT85;21267;51.032;6.998;2024-03-08T22:03:01;7.56;67.21
35085;SHT85;21267;51.032;6.998;2024-03-08T22:05:29;7.54;67.42
35085;SHT85;21267;51.032;6.998;2024-03-08T22:07:56;7.59;67.06
35085;SHT85;21267;51.032;6.998;2024-03-08T22:10:24;7.58;67.06
35085;SHT85;21267;51.032;6.998;2024-03-08T22:12:55;7.55;67.14
35085;SHT85;21267;51.032;6.998;2024-03-08T22:15:23;7.51;67.25
35085;SHT85;21267;51.032;6.998;2024-03-08T22:17:51;7.47;67.50
35085;SHT85;21267;51.032;6.998;2024-03-08T22:20:25;7.45;67.47
35085;SHT85;21267;51.032;6.998;2024-03-08T22:22:59;7.45;67.54
35085;SHT85;21267;51.032;6.998;2024-03-08T22:25:30;7.35;67.78
35085;SHT85;21267;51.032;6.998;2024-03-08T22:27:59;7.42;67.72
35085;SHT85;21267;51.032;6.998;2024-03-08T22:30:26;7.24;68.16
35085;SHT85;21267;51.032;6.998;2024-03-08T22:32:54;7.25;68.24
35085;SHT85;21267;51.032;6.998;2024-03-08T22:35:23;7.24;68.32
35085;SHT85;21267;51.032;6.998;2024-03-08T22:37:55;7.23;68.45
35085;SHT85;21267;51.032;6.998;2024-03-08T22:40:22;7.17;68.69
35085;SHT85;21267;51.032;6.998;2024-03-08T22:42:54;7.03;68.97
35085;SHT85;21267;51.032;6.998;2024-03-08T22:45:22;7.08;68.98
35085;SHT85;21267;51.032;6.998;2024-03-08T22:47:51;7.00;69.21
35085;SHT85;21267;51.032;6.998;2024-03-08T22:50:18;6.92;69.47
35085;SHT85;21267;51.032;6.998;2024-03-08T22:52:46;6.87;69.68
35085;SHT85;21267;51.032;6.998;2024-03-08T22:55:16;6.93;69.56
35085;SHT85;21267;51.032;6.998;2024-03-08T22:57:48;6.94;69.35
35085;SHT85;21267;51.032;6.998;2024-03-08T23:00:17;6.94;69.66
35085;SHT85;21267;51.032;6.998;2024-03-08T23:02:52;6.93;69.57
35085;SHT85;21267;51.032;6.998;2024-03-08T23:05:20;7.01;69.12
35085;SHT85;21267;51.032;6.998;2024-03-08T23:07:49;6.96;69.49
35085;SHT85;21267;51.032;6.998;2024-03-08T23:10:20;6.87;69.78
35085;SHT85;21267;51.032;6.998;2024-03-08T23:12:50;6.84;69.83
35085;SHT85;21267;51.032;6.998;2024-03-08T23:15:20;6.84;69.83
35085;SHT85;21267;51.032;6.998;2024-03-08T23:17:51;6.92;69.69
35085;SHT85;21267;51.032;6.998;2024-03-08T23:20:20;6.83;69.86
35085;SHT85;21267;51.032;6.998;2024-03-08T23:22:48;6.82;70.11
35085;SHT85;21267;51.032;6.998;2024-03-08T23:25:19;6.86;70.04
35085;SHT85;21267;51.032;6.998;2024-03-08T23:27:51;6.75;70.27
35085;SHT85;21267;51.032;6.998;2024-03-08T23:30:20;6.83;69.99
35085;SHT85;21267;51.032;6.998;2024-03-08T23:32:50;6.87;70.04
35085;SHT85;21267;51.032;6.998;2024-03-08T23:35:17;6.77;70.40
35085;SHT85;21267;51.032;6.998;2024-03-08T23:37:45;6.83;70.11
35085;SHT85;21267;51.032;6.998;2024-03-08T23:40:17;6.83;70.12
35085;SHT85;21267;51.032;6.998;2024-03-08T23:42:49;6.83;70.35
35085;SHT85;21267;51.032;6.998;2024-03-08T23:45:18;6.82;70.32
35085;SHT85;21267;51.032;6.998;2024-03-08T23:47:53;6.86;70.03
35085;SHT85;21267;51.032;6.998;2024-03-08T23:50:30;6.83;70.26
35085;SHT85;21267;51.032;6.998;2024-03-08T23:52:59;6.82;70.27
35085;SHT85;21267;51.032;6.998;2024-03-08T23:55:28;6.86;70.15
35085;SHT85;21267;51.032;6.998;2024-03-08T23:57:58;6.82;70.23
